Time;durP1;ratioP1;P1;durP2;ratioP2;P2;SDS_P1;SDS_P2;PMS_P1;PMS_P2;Temp;Humidity;BMP_temperature;BMP_pressure;BME280_temperature;BME280_humidity;BME280_pressure;Samples;Min_cycle;Max_cycle;Signal;HPM_P1;HPM_P2
2024/01/23 00:02:12;;;;;;;24.98;3.67;;;;;;;;;;5059769;28;20545;-80
2024/01/23 00:04:38;;;;;;;19.08;3.70;;;;;;;;;;5059884;28;20568;-80
2024/01/23 00:07:04;;;;;;;24.02;3.45;;;;;;;;;;5059945;28;20747;-80
2024/01/23 00:09:30;;;;;;;16.65;2.40;;;;;;;;;;5052937;28;20482;-80
2024/01/23 00:11:58;;;;;;;22.23;3.97;;;;;;;;;;5058709;28;20517;-80
2024/01/23 00:14:24;;;;;;;23.50;3.28;;;;;;;;;;5058097;28;20095;-80
2024/01/23 00:16:50;;;;;;;21.38;3.47;;;;;;;;;;5059395;28;20041;-80
2024/01/23 00:19:16;;;;;;;17.58;3.03;;;;;;;;;;5059946;28;20048;-80
2024/01/23 00:21:42;;;;;;;22.35;3.30;;;;;;;;;;5060139;28;20045;-80
2024/01/23 00:24:09;;;;;;;23.85;4.28;;;;;;;;;;5059958;28;20045;-80
2024/01/23 00:26:35;;;;;;;19.02;2.95;;;;;;;;;;5059503;28;20107;-81
2024/01/23 00:29:03;;;;;;;29.60;4.10;;;;;;;;;;5060251;28;20096;-80
2024/01/23 00:31:29;;;;;;;17.25;3.15;;;;;;;;;;5060185;28;20049;-80
2024/01/23 00:33:55;;;;;;;22.63;3.40;;;;;;;;;;5060512;28;20067;-80
2024/01/23 00:36:22;;;;;;;27.33;3.65;;;;;;;;;;5058781;28;20049;-80
2024/01/23 00:38:48;;;;;;;23.27;3.20;;;;;;;;;;5058491;28;20063;-80
2024/01/23 00:41:14;;;;;;;21.50;3.13;;;;;;;;;;5058796;28;20045;-81
2024/01/23 00:43:40;;;;;;;17.95;2.90;;;;;;;;;;5059790;28;20041;-80
2024/01/23 00:46:06;;;;;;;18.77;3.33;;;;;;;;;;5062432;28;20394;-81
2024/01/23 00:48:35;;;;;;;22.52;3.47;;;;;;;;;;5059633;28;20040;-80
2024/01/23 00:51:01;;;;;;;19.65;2.70;;;;;;;;;;5049631;28;20049;-80
2024/01/23 00:53:28;;;;;;;18.90;3.03;;;;;;;;;;5053572;28;20045;-81
2024/01/23 00:55:54;;;;;;;20.40;3.25;;;;;;;;;;5060063;28;20055;-80
2024/01/23 00:58:20;;;;;;;20.63;3.45;;;;;;;;;;5053674;28;20136;-80
2024/01/23 01:00:46;;;;;;;15.85;2.58;;;;;;;;;;5060104;28;20092;-80
2024/01/23 01:03:12;;;;;;;17.77;2.90;;;;;;;;;;5059718;28;20040;-80
2024/01/23 01:05:41;;;;;;;18.25;2.90;;;;;;;;;;5060677;28;20040;-80
2024/01/23 01:08:11;;;;;;;19.30;3.60;;;;;;;;;;5059923;28;20072;-81
2024/01/23 01:10:37;;;;;;;16.00;3.10;;;;;;;;;;5059829;28;20560;-80
2024/01/23 01:13:03;;;;;;;18.65;3.05;;;;;;;;;;5060670;28;20108;-80
2024/01/23 01:15:30;;;;;;;20.65;3.25;;;;;;;;;;5059488;28;20494;-80
2024/01/23 01:17:56;;;;;;;16.65;3.10;;;;;;;;;;5060756;28;20041;-81
2024/01/23 01:20:22;;;;;;;21.42;3.25;;;;;;;;;;5059136;28;20103;-80
2024/01/23 01:22:48;;;;;;;19.15;3.20;;;;;;;;;;5055346;28;20045;-80
2024/01/23 01:25:14;;;;;;;23.35;3.60;;;;;;;;;;5048789;28;20057;-80
2024/01/23 01:27:42;;;;;;;20.10;3.08;;;;;;;;;;5060364;28;20457;-80
2024/01/23 01:30:10;;;;;;;22.30;3.53;;;;;;;;;;5059165;28;20049;-80
2024/01/23 01:32:37;;;;;;;18.02;3.13;;;;;;;;;;5056124;28;20510;-81
2024/01/23 01:35:03;;;;;;;16.67;2.95;;;;;;;;;;5055718;28;20044;-80
2024/01/23 01:37:29;;;;;;;17.88;3.60;;;;;;;;;;5056715;28;20045;-80
2024/01/23 01:39:55;;;;;;;20.58;2.67;;;;;;;;;;5059480;28;20498;-80
2024/01/23 01:42:21;;;;;;;19.60;2.92;;;;;;;;;;5055228;28;20478;-80
2024/01/23 01:44:47;;;;;;;18.33;3.03;;;;;;;;;;5059751;28;20052;-80
2024/01/23 01:47:13;;;;;;;17.70;3.40;;;;;;;;;;5059938;28;20045;-80
2024/01/23 01:49:39;;;;;;;15.50;2.67;;;;;;;;;;5059542;28;20045;-80
2024/01/23 01:52:05;;;;;;;20.08;3.03;;;;;;;;;;5055995;28;20543;-80
2024/01/23 01:54:32;;;;;;;22.40;3.55;;;;;;;;;;5058117;28;20045;-80
2024/01/23 01:56:59;;;;;;;25.92;4.47;;;;;;;;;;5059759;28;20049;-80
2024/01/23 01:59:25;;;;;;;22.17;3.47;;;;;;;;;;5059479;28;20049;-80
2024/01/23 02:01:52;;;;;;;20.70;2.95;;;;;;;;;;5059702;28;20045;-80
2024/01/23 02:04:18;;;;;;;19.52;3.15;;;;;;;;;;5058818;28;20037;-80
2024/01/23 02:06:47;;;;;;;22.55;3.15;;;;;;;;;;5070229;28;20042;-80
2024/01/23 02:09:13;;;;;;;20.90;3.50;;;;;;;;;;5079954;28;20047;-80
2024/01/23 02:11:59;;;;;;;18.77;3.75;;;;;;;;;;5074130;28;20053;-80
2024/01/23 02:14:26;;;;;;;23.85;3.58;;;;;;;;;;5053754;28;20075;-80
2024/01/23 02:16:53;;;;;;;21.38;3.10;;;;;;;;;;5050665;28;20091;-80
2024/01/23 02:19:19;;;;;;;24.50;4.10;;;;;;;;;;5053105;28;20050;-80
2024/01/23 02:21:45;;;;;;;19.52;3.75;;;;;;;;;;5053406;28;20060;-81
2024/01/23 02:24:11;;;;;;;20.98;3.08;;;;;;;;;;5053878;28;20326;-81
2024/01/23 02:26:37;;;;;;;20.95;3.38;;;;;;;;;;5053637;28;20045;-80
2024/01/23 02:29:03;;;;;;;18.40;3.38;;;;;;;;;;5053342;28;20120;-80
2024/01/23 02:31:29;;;;;;;22.45;4.32;;;;;;;;;;5053227;28;20048;-80
2024/01/23 02:33:55;;;;;;;23.02;3.08;;;;;;;;;;5051161;28;20114;-80
2024/01/23 02:36:21;;;;;;;20.30;4.07;;;;;;;;;;5056608;28;20037;-81
2024/01/23 02:38:47;;;;;;;21.25;3.72;;;;;;;;;;5052875;28;20044;-81
2024/01/23 02:41:13;;;;;;;22.63;3.60;;;;;;;;;;5060754;28;20568;-80
2024/01/23 02:43:39;;;;;;;18.10;3.22;;;;;;;;;;5059647;28;20419;-80
2024/01/23 02:46:05;;;;;;;19.05;2.97;;;;;;;;;;5062315;28;20041;-80
2024/01/23 02:48:31;;;;;;;18.73;3.78;;;;;;;;;;5055137;28;20509;-80
2024/01/23 02:50:57;;;;;;;19.67;3.47;;;;;;;;;;5059279;28;20048;-80
2024/01/23 02:53:23;;;;;;;25.27;3.92;;;;;;;;;;5061962;28;20052;-80
2024/01/23 02:55:49;;;;;;;22.08;3.22;;;;;;;;;;5062945;28;20413;-80
2024/01/23 02:58:17;;;;;;;21.25;3.33;;;;;;;;;;5063082;28;20061;-80
2024/01/23 03:00:43;;;;;;;24.27;3.25;;;;;;;;;;5057186;28;20048;-81
2024/01/23 03:03:10;;;;;;;21.67;3.40;;;;;;;;;;5061141;28;20051;-80
2024/01/23 03:05:36;;;;;;;17.08;3.30;;;;;;;;;;5062077;28;20037;-80
2024/01/23 03:08:02;;;;;;;26.17;4.75;;;;;;;;;;5062704;28;20383;-80
2024/01/23 03:10:28;;;;;;;20.58;3.50;;;;;;;;;;5063871;28;20045;-80
2024/01/23 03:12:54;;;;;;;22.20;3.25;;;;;;;;;;5065258;28;20108;-81
2024/01/23 03:15:20;;;;;;;21.58;4.10;;;;;;;;;;5051212;28;20624;-80
2024/01/23 03:17:46;;;;;;;23.33;4.00;;;;;;;;;;5062998;28;20040;-80
2024/01/23 03:20:12;;;;;;;23.17;3.47;;;;;;;;;;5062891;28;20049;-80
2024/01/23 03:22:39;;;;;;;26.00;3.53;;;;;;;;;;5063156;28;20044;-80
2024/01/23 03:25:05;;;;;;;22.88;3.22;;;;;;;;;;5062377;28;20067;-80
2024/01/23 03:27:31;;;;;;;26.08;4.53;;;;;;;;;;5063132;28;20041;-80
2024/01/23 03:29:57;;;;;;;20.95;3.22;;;;;;;;;;5062872;28;20095;-80
2024/01/23 03:32:23;;;;;;;26.83;4.05;;;;;;;;;;5063094;28;20064;-80
2024/01/23 03:34:50;;;;;;;22.80;3.67;;;;;;;;;;5061866;28;20045;-80
2024/01/23 03:37:16;;;;;;;22.05;3.50;;;;;;;;;;5060301;28;20048;-80
2024/01/23 03:39:42;;;;;;;26.42;3.78;;;;;;;;;;5059252;28;20041;-80
2024/01/23 03:42:08;;;;;;;20.20;4.25;;;;;;;;;;5076555;28;20045;-80
2024/01/23 03:44:34;;;;;;;24.30;3.78;;;;;;;;;;5062349;28;20055;-80
2024/01/23 03:47:00;;;;;;;21.27;3.63;;;;;;;;;;5060708;28;20095;-80
2024/01/23 03:49:27;;;;;;;18.90;3.35;;;;;;;;;;5061050;28;20045;-80
2024/01/23 03:51:53;;;;;;;22.30;3.33;;;;;;;;;;5061977;28;20049;-80
2024/01/23 03:54:19;;;;;;;23.90;3.67;;;;;;;;;;5046414;28;20487;-80
2024/01/23 03:56:45;;;;;;;19.00;3.63;;;;;;;;;;5059374;28;20200;-80
2024/01/23 03:59:11;;;;;;;21.77;3.63;;;;;;;;;;5065706;28;20106;-80
2024/01/23 04:01:37;;;;;;;22.05;4.53;;;;;;;;;;5061372;28;20080;-80
2024/01/23 04:04:04;;;;;;;25.23;4.43;;;;;;;;;;5060984;28;20044;-81
2024/01/23 04:06:31;;;;;;;24.95;4.22;;;;;;;;;;5061982;28;20072;-80
2024/01/23 04:08:57;;;;;;;21.90;4.63;;;;;;;;;;5061478;28;20041;-80
2024/01/23 04:11:23;;;;;;;21.73;3.70;;;;;;;;;;5061110;28;20041;-80
2024/01/23 04:13:50;;;;;;;23.63;4.15;;;;;;;;;;5061856;28;20052;-80
2024/01/23 04:16:16;;;;;;;23.38;3.92;;;;;;;;;;5059815;28;20120;-80
2024/01/23 04:18:42;;;;;;;26.15;3.97;;;;;;;;;;5061609;28;20037;-80
2024/01/23 04:21:11;;;;;;;22.08;4.20;;;;;;;;;;5058195;28;20123;-80
2024/01/23 04:23:37;;;;;;;27.48;4.75;;;;;;;;;;5060693;28;20398;-80
2024/01/23 04:26:05;;;;;;;19.40;3.90;;;;;;;;;;5060423;28;20048;-80
2024/01/23 04:28:31;;;;;;;29.58;4.38;;;;;;;;;;5061980;28;20048;-80
2024/01/23 04:30:57;;;;;;;27.83;3.63;;;;;;;;;;5060464;28;20053;-80
2024/01/23 04:33:25;;;;;;;27.30;4.50;;;;;;;;;;5060857;28;20131;-80
2024/01/23 04:35:51;;;;;;;33.88;4.75;;;;;;;;;;5060028;28;20044;-80
2024/01/23 04:38:17;;;;;;;26.88;4.75;;;;;;;;;;5060652;28;20056;-80
2024/01/23 04:40:43;;;;;;;25.70;3.72;;;;;;;;;;5059380;28;20068;-80
2024/01/23 04:43:12;;;;;;;26.67;4.97;;;;;;;;;;5047783;28;20045;-81
2024/01/23 04:45:38;;;;;;;25.98;4.22;;;;;;;;;;5053733;28;20052;-80
2024/01/23 04:48:04;;;;;;;28.90;4.28;;;;;;;;;;5043804;28;20053;-80
2024/01/23 04:50:30;;;;;;;24.95;4.28;;;;;;;;;;5058926;28;20083;-80
2024/01/23 04:52:56;;;;;;;27.77;4.38;;;;;;;;;;5054945;28;20048;-80
2024/01/23 04:55:23;;;;;;;28.05;5.10;;;;;;;;;;5052888;28;20045;-80
2024/01/23 04:57:49;;;;;;;28.60;4.57;;;;;;;;;;5058994;28;20061;-80
2024/01/23 05:00:17;;;;;;;30.02;4.57;;;;;;;;;;5048158;28;20045;-80
2024/01/23 05:02:43;;;;;;;28.70;4.88;;;;;;;;;;5047768;28;20080;-80
2024/01/23 05:05:10;;;;;;;24.40;4.47;;;;;;;;;;5057925;28;20053;-80
2024/01/23 05:07:36;;;;;;;33.78;4.80;;;;;;;;;;5058586;28;20067;-80
2024/01/23 05:10:04;;;;;;;30.42;4.10;;;;;;;;;;5045993;28;20048;-80
2024/01/23 05:12:30;;;;;;;29.35;5.22;;;;;;;;;;5060401;28;20049;-80
2024/01/23 05:14:56;;;;;;;25.13;4.10;;;;;;;;;;5047445;28;20096;-80
2024/01/23 05:17:22;;;;;;;27.98;4.50;;;;;;;;;;5057574;28;20490;-80
2024/01/23 05:19:48;;;;;;;31.17;4.78;;;;;;;;;;5060964;28;20045;-80
2024/01/23 05:22:14;;;;;;;29.25;5.20;;;;;;;;;;5060850;28;20056;-80
2024/01/23 05:24:41;;;;;;;26.85;4.55;;;;;;;;;;5059468;28;20057;-80
2024/01/23 05:27:09;;;;;;;30.52;5.00;;;;;;;;;;5060662;28;20089;-80
2024/01/23 05:29:35;;;;;;;25.88;4.22;;;;;;;;;;5059546;28;20048;-80
2024/01/23 05:32:01;;;;;;;35.60;5.38;;;;;;;;;;5060180;28;20045;-80
2024/01/23 05:34:28;;;;;;;21.48;4.18;;;;;;;;;;5060424;28;20044;-81
2024/01/23 05:36:54;;;;;;;29.15;5.05;;;;;;;;;;5058901;28;20044;-80
2024/01/23 05:39:20;;;;;;;31.08;4.70;;;;;;;;;;5058418;28;20049;-81
2024/01/23 05:41:46;;;;;;;26.25;4.50;;;;;;;;;;5058067;28;20049;-80
2024/01/23 05:44:12;;;;;;;33.42;5.18;;;;;;;;;;5052836;28;20045;-80
2024/01/23 05:46:38;;;;;;;33.08;5.25;;;;;;;;;;5059046;28;20045;-80
2024/01/23 05:49:04;;;;;;;30.80;4.50;;;;;;;;;;5059704;28;20044;-80
2024/01/23 05:51:30;;;;;;;29.80;4.72;;;;;;;;;;5059389;28;20044;-80
2024/01/23 05:53:56;;;;;;;33.85;5.07;;;;;;;;;;5060771;28;20037;-80
2024/01/23 05:56:22;;;;;;;24.27;4.22;;;;;;;;;;5056586;28;20037;-80
2024/01/23 05:58:48;;;;;;;27.80;4.60;;;;;;;;;;5057635;28;20064;-80
2024/01/23 06:01:14;;;;;;;33.95;5.60;;;;;;;;;;5060276;28;20095;-80
2024/01/23 06:03:40;;;;;;;32.78;4.97;;;;;;;;;;5055979;28;20048;-80
2024/01/23 06:06:06;;;;;;;28.58;4.90;;;;;;;;;;5056673;28;20074;-80
2024/01/23 06:08:32;;;;;;;31.85;5.00;;;;;;;;;;5059395;28;20051;-78
2024/01/23 06:10:58;;;;;;;26.10;4.90;;;;;;;;;;5053131;28;20102;-79
2024/01/23 06:13:24;;;;;;;34.00;5.55;;;;;;;;;;5033921;28;20057;-78
2024/01/23 06:15:50;;;;;;;38.47;6.15;;;;;;;;;;5047244;28;20045;-78
2024/01/23 06:18:17;;;;;;;34.85;5.53;;;;;;;;;;5051258;28;20490;-78
2024/01/23 06:20:45;;;;;;;35.00;5.97;;;;;;;;;;5043282;28;20048;-78
2024/01/23 06:23:11;;;;;;;29.00;4.60;;;;;;;;;;5047036;28;20071;-78
2024/01/23 06:25:37;;;;;;;34.25;5.20;;;;;;;;;;5053144;28;20033;-79
2024/01/23 06:28:04;;;;;;;33.78;5.93;;;;;;;;;;5046211;28;20056;-78
2024/01/23 06:30:30;;;;;;;31.42;5.80;;;;;;;;;;5055625;28;20044;-79
2024/01/23 06:32:56;;;;;;;33.35;6.00;;;;;;;;;;5050504;28;20475;-79
2024/01/23 06:35:22;;;;;;;29.55;5.78;;;;;;;;;;5054392;28;20049;-79
2024/01/23 06:37:48;;;;;;;36.72;6.35;;;;;;;;;;5054380;28;20069;-79
2024/01/23 06:40:14;;;;;;;36.85;5.63;;;;;;;;;;5050074;28;20131;-79
2024/01/23 06:42:40;;;;;;;28.13;5.57;;;;;;;;;;5050263;28;20041;-79
2024/01/23 06:45:10;;;;;;;35.80;6.05;;;;;;;;;;5053421;28;20049;-78
2024/01/23 06:47:36;;;;;;;39.50;6.28;;;;;;;;;;5052954;28;20450;-79
2024/01/23 06:50:02;;;;;;;37.08;6.13;;;;;;;;;;5039585;28;20045;-78
2024/01/23 06:52:28;;;;;;;38.33;6.10;;;;;;;;;;5053145;28;20037;-79
2024/01/23 06:54:54;;;;;;;33.38;4.82;;;;;;;;;;5054336;28;20049;-79
2024/01/23 06:57:20;;;;;;;39.95;6.32;;;;;;;;;;5054708;28;20048;-79
2024/01/23 06:59:46;;;;;;;31.83;5.50;;;;;;;;;;5056166;28;20052;-78
2024/01/23 07:02:12;;;;;;;32.15;5.68;;;;;;;;;;5055273;28;20107;-79
2024/01/23 07:04:40;;;;;;;34.05;5.90;;;;;;;;;;5047616;28;20050;-79
2024/01/23 07:07:06;;;;;;;35.08;6.45;;;;;;;;;;5056573;28;20479;-79
2024/01/23 07:09:32;;;;;;;30.65;6.25;;;;;;;;;;5058062;28;20037;-79
2024/01/23 07:11:59;;;;;;;40.20;6.32;;;;;;;;;;5058220;28;20049;-79
2024/01/23 07:14:28;;;;;;;35.00;5.70;;;;;;;;;;5058770;28;20044;-79
2024/01/23 07:16:54;;;;;;;37.53;6.03;;;;;;;;;;5057870;28;20486;-79
2024/01/23 07:19:20;;;;;;;29.17;5.30;;;;;;;;;;5055958;28;20445;-79
2024/01/23 07:21:46;;;;;;;33.97;5.82;;;;;;;;;;5055186;28;20052;-79
2024/01/23 07:24:12;;;;;;;36.90;6.22;;;;;;;;;;5072131;28;20040;-79
2024/01/23 07:26:38;;;;;;;36.40;6.22;;;;;;;;;;5056605;28;20040;-79
2024/01/23 07:29:04;;;;;;;35.47;6.43;;;;;;;;;;5060350;28;20049;-79
2024/01/23 07:31:31;;;;;;;37.85;6.13;;;;;;;;;;5058459;28;20071;-80
2024/01/23 07:33:57;;;;;;;33.53;5.53;;;;;;;;;;5057297;28;20255;-80
2024/01/23 07:36:23;;;;;;;38.92;6.18;;;;;;;;;;5057244;28;20037;-79
2024/01/23 07:38:49;;;;;;;33.25;5.72;;;;;;;;;;5059989;28;20041;-79
2024/01/23 07:41:16;;;;;;;37.22;6.70;;;;;;;;;;5057964;28;20040;-79
2024/01/23 07:43:42;;;;;;;36.35;5.78;;;;;;;;;;5057197;28;20044;-79
2024/01/23 07:46:08;;;;;;;35.85;5.70;;;;;;;;;;5051178;28;20041;-79
2024/01/23 07:48:34;;;;;;;28.80;5.20;;;;;;;;;;5059875;28;20045;-79
2024/01/23 07:51:00;;;;;;;36.88;6.43;;;;;;;;;;5058965;28;20190;-79
2024/01/23 07:53:29;;;;;;;39.50;6.55;;;;;;;;;;5060269;28;20041;-79
2024/01/23 07:55:55;;;;;;;38.88;5.88;;;;;;;;;;5059324;28;20048;-79
2024/01/23 07:58:21;;;;;;;33.45;5.78;;;;;;;;;;5044666;28;20054;-79
2024/01/23 08:00:47;;;;;;;36.25;5.47;;;;;;;;;;5048598;28;20431;-79
2024/01/23 08:03:13;;;;;;;38.72;5.50;;;;;;;;;;5068887;28;20045;-79
2024/01/23 08:05:40;;;;;;;36.72;6.45;;;;;;;;;;5055280;28;20044;-79
2024/01/23 08:08:09;;;;;;;39.97;5.75;;;;;;;;;;5057345;28;20053;-79
2024/01/23 08:10:35;;;;;;;38.10;6.63;;;;;;;;;;5057445;28;20052;-79
2024/01/23 08:13:02;;;;;;;40.40;6.63;;;;;;;;;;5057177;28;20041;-79
2024/01/23 08:15:28;;;;;;;32.42;5.80;;;;;;;;;;5056290;28;20498;-78
2024/01/23 08:17:55;;;;;;;45.42;6.60;;;;;;;;;;5050673;28;20144;-78
2024/01/23 08:20:21;;;;;;;29.95;5.47;;;;;;;;;;5052312;28;20409;-80
2024/01/23 08:22:47;;;;;;;35.25;5.35;;;;;;;;;;5058244;28;20060;-79
2024/01/23 08:25:13;;;;;;;40.85;5.45;;;;;;;;;;5058902;28;20040;-79
2024/01/23 08:27:40;;;;;;;30.65;5.53;;;;;;;;;;5055976;28;20056;-79
2024/01/23 08:30:06;;;;;;;37.78;6.53;;;;;;;;;;5060673;28;20052;-79
2024/01/23 08:32:32;;;;;;;36.17;5.40;;;;;;;;;;5055946;28;20064;-79
2024/01/23 08:34:58;;;;;;;34.90;6.32;;;;;;;;;;5055700;28;20366;-79
2024/01/23 08:37:25;;;;;;;31.20;5.53;;;;;;;;;;5056342;28;20348;-83
2024/01/23 08:39:51;;;;;;;33.92;5.47;;;;;;;;;;5051762;28;20050;-82
2024/01/23 08:42:17;;;;;;;46.60;6.35;;;;;;;;;;5049452;28;20123;-83
2024/01/23 08:44:47;;;;;;;34.72;5.82;;;;;;;;;;5059945;28;20079;-82
2024/01/23 08:47:13;;;;;;;39.35;5.93;;;;;;;;;;5060399;28;20123;-81
2024/01/23 08:49:39;;;;;;;35.17;5.63;;;;;;;;;;5058258;28;20132;-82
2024/01/23 08:52:05;;;;;;;30.88;6.00;;;;;;;;;;5059008;28;20045;-82
2024/01/23 08:54:33;;;;;;;36.45;5.57;;;;;;;;;;5060013;28;20048;-82
2024/01/23 08:57:00;;;;;;;38.00;6.80;;;;;;;;;;5060147;28;20064;-82
2024/01/23 08:59:28;;;;;;;41.05;5.93;;;;;;;;;;5057487;28;20083;-81
2024/01/23 09:01:54;;;;;;;29.27;5.00;;;;;;;;;;5059110;28;20056;-82
2024/01/23 09:04:21;;;;;;;37.33;6.00;;;;;;;;;;5060159;28;20111;-82
2024/01/23 09:06:47;;;;;;;30.08;5.13;;;;;;;;;;5057786;28;20053;-82
2024/01/23 09:09:13;;;;;;;36.25;5.40;;;;;;;;;;5056190;28;20128;-83
2024/01/23 09:11:39;;;;;;;36.40;5.55;;;;;;;;;;5060660;28;20064;-82
2024/01/23 09:14:06;;;;;;;39.05;6.25;;;;;;;;;;5058910;28;20044;-82
2024/01/23 09:16:32;;;;;;;33.72;5.85;;;;;;;;;;5050233;28;20139;-82
2024/01/23 09:18:58;;;;;;;41.55;5.78;;;;;;;;;;5058986;28;20052;-82
2024/01/23 09:21:24;;;;;;;34.70;5.22;;;;;;;;;;5060911;28;20048;-82
2024/01/23 09:23:50;;;;;;;36.92;5.95;;;;;;;;;;5054026;28;20097;-82
2024/01/23 09:26:16;;;;;;;36.58;5.97;;;;;;;;;;5046821;28;20048;-82
2024/01/23 09:28:42;;;;;;;38.40;5.95;;;;;;;;;;5061383;28;20049;-82
2024/01/23 09:31:09;;;;;;;40.47;6.38;;;;;;;;;;5061650;28;20089;-82
2024/01/23 09:33:35;;;;;;;32.35;5.32;;;;;;;;;;5047152;28;20041;-82
2024/01/23 09:36:01;;;;;;;28.25;5.22;;;;;;;;;;5055164;28;20100;-82
2024/01/23 09:38:27;;;;;;;33.53;6.00;;;;;;;;;;5054802;28;20037;-82
2024/01/23 09:40:53;;;;;;;39.72;5.88;;;;;;;;;;5059074;28;20129;-82
2024/01/23 09:43:20;;;;;;;31.73;5.28;;;;;;;;;;5057460;28;20045;-82
2024/01/23 09:45:47;;;;;;;39.72;6.22;;;;;;;;;;5057951;28;20068;-82
2024/01/23 09:48:15;;;;;;;34.25;6.93;;;;;;;;;;5059201;28;20131;-82
2024/01/23 09:50:42;;;;;;;34.40;5.55;;;;;;;;;;5060626;28;20045;-81
2024/01/23 09:53:10;;;;;;;34.53;5.70;;;;;;;;;;5059141;28;20045;-82
2024/01/23 09:55:36;;;;;;;30.17;6.43;;;;;;;;;;5075232;28;20040;-82
2024/01/23 09:58:07;;;;;;;38.72;6.00;;;;;;;;;;5062516;28;20088;-82
2024/01/23 10:00:34;;;;;;;35.60;5.55;;;;;;;;;;5060375;28;20076;-82
2024/01/23 10:03:00;;;;;;;29.38;5.38;;;;;;;;;;5057981;28;20041;-82
2024/01/23 10:05:26;;;;;;;31.95;5.43;;;;;;;;;;5057710;28;20513;-82
2024/01/23 10:07:54;;;;;;;40.20;6.00;;;;;;;;;;5057601;28;20049;-82
2024/01/23 10:10:20;;;;;;;30.65;5.95;;;;;;;;;;5055946;28;20060;-83
2024/01/23 10:12:46;;;;;;;39.97;5.82;;;;;;;;;;5059179;28;20105;-82
2024/01/23 10:15:14;;;;;;;39.33;6.05;;;;;;;;;;5065270;28;20045;-82
2024/01/23 10:17:40;;;;;;;40.38;6.60;;;;;;;;;;5058139;28;20041;-82
2024/01/23 10:20:08;;;;;;;34.97;5.35;;;;;;;;;;5054313;28;20069;-82
2024/01/23 10:22:35;;;;;;;34.58;5.72;;;;;;;;;;5037672;28;20482;-82
2024/01/23 10:25:02;;;;;;;29.85;6.20;;;;;;;;;;5061715;28;20041;-82
2024/01/23 10:27:33;;;;;;;33.90;5.88;;;;;;;;;;5058540;28;20041;-82
2024/01/23 10:29:59;;;;;;;36.25;5.65;;;;;;;;;;5059181;28;20045;-82
2024/01/23 10:32:26;;;;;;;43.00;6.90;;;;;;;;;;5060014;28;20090;-83
2024/01/23 10:34:55;;;;;;;33.50;5.80;;;;;;;;;;5058850;28;20552;-83
2024/01/23 10:37:21;;;;;;;28.83;5.38;;;;;;;;;;5058358;28;20060;-82
2024/01/23 10:39:51;;;;;;;34.08;5.72;;;;;;;;;;5057134;28;20071;-82
2024/01/23 10:42:20;;;;;;;34.00;5.82;;;;;;;;;;5056806;28;20051;-83
2024/01/23 10:44:48;;;;;;;42.58;6.43;;;;;;;;;;5060546;28;20077;-82
2024/01/23 10:47:15;;;;;;;31.00;6.28;;;;;;;;;;5053987;28;20128;-82
2024/01/23 10:49:44;;;;;;;33.25;5.57;;;;;;;;;;5064258;28;20096;-82
2024/01/23 10:52:15;;;;;;;35.22;5.80;;;;;;;;;;5055809;28;20075;-82
2024/01/23 10:54:43;;;;;;;35.07;5.80;;;;;;;;;;5056866;28;20421;-82
2024/01/23 10:57:12;;;;;;;32.13;5.95;;;;;;;;;;5055111;28;20041;-82
2024/01/23 10:59:39;;;;;;;36.05;6.20;;;;;;;;;;5044812;28;20049;-82
2024/01/23 11:02:16;;;;;;;41.08;6.68;;;;;;;;;;5056417;28;20048;-82
2024/01/23 11:04:42;;;;;;;35.40;6.10;;;;;;;;;;5055571;28;20038;-82
2024/01/23 11:07:15;;;;;;;31.73;5.72;;;;;;;;;;5061757;28;20449;-82
2024/01/23 11:09:53;;;;;;;36.80;6.30;;;;;;;;;;5061478;28;20121;-83
2024/01/23 11:12:26;;;;;;;33.80;5.35;;;;;;;;;;5061505;28;20048;-83
2024/01/23 11:14:58;;;;;;;32.92;5.88;;;;;;;;;;5064155;28;20086;-83
2024/01/23 11:17:24;;;;;;;36.60;5.57;;;;;;;;;;5063442;28;20060;-83
2024/01/23 11:20:04;;;;;;;37.83;6.20;;;;;;;;;;5063471;28;20374;-83
2024/01/23 11:22:30;;;;;;;37.72;5.68;;;;;;;;;;5058897;28;20052;-82
2024/01/23 11:24:56;;;;;;;39.63;6.05;;;;;;;;;;5044482;28;20049;-82
2024/01/23 11:27:23;;;;;;;39.55;5.80;;;;;;;;;;5056680;28;20053;-83
2024/01/23 11:29:50;;;;;;;37.38;6.05;;;;;;;;;;5055490;28;20542;-83
2024/01/23 11:32:20;;;;;;;36.30;6.20;;;;;;;;;;5061535;28;20045;-83
2024/01/23 11:34:58;;;;;;;32.78;5.22;;;;;;;;;;5060580;28;20040;-83
2024/01/23 11:37:33;;;;;;;34.97;6.13;;;;;;;;;;5062445;28;20057;-82
2024/01/23 11:39:59;;;;;;;31.88;6.07;;;;;;;;;;5062757;28;20064;-83
2024/01/23 11:42:38;;;;;;;35.22;6.00;;;;;;;;;;5041096;28;20046;-83
2024/01/23 11:45:21;;;;;;;31.55;5.57;;;;;;;;;;5036668;28;20198;-83
2024/01/23 11:47:48;;;;;;;32.15;5.13;;;;;;;;;;5037120;28;20049;-83
2024/01/23 11:50:14;;;;;;;29.75;5.20;;;;;;;;;;5038081;28;20072;-83
2024/01/23 11:52:42;;;;;;;27.33;4.28;;;;;;;;;;5039174;28;20049;-83
2024/01/23 11:55:13;;;;;;;33.53;5.75;;;;;;;;;;5041123;28;20041;-83
2024/01/23 11:57:39;;;;;;;29.17;6.07;;;;;;;;;;5057687;28;20108;-83
2024/01/23 12:00:06;;;;;;;28.67;4.70;;;;;;;;;;5055090;28;20052;-83
2024/01/23 12:02:33;;;;;;;35.60;6.18;;;;;;;;;;5055506;28;20063;-84
2024/01/23 12:04:59;;;;;;;33.45;5.65;;;;;;;;;;5060022;28;20055;-83
2024/01/23 12:07:25;;;;;;;35.05;6.50;;;;;;;;;;5051757;28;20037;-84
2024/01/23 12:09:51;;;;;;;29.63;5.05;;;;;;;;;;5060068;28;20052;-83
2024/01/23 12:12:18;;;;;;;28.80;5.50;;;;;;;;;;5058170;28;20041;-83
2024/01/23 12:14:46;;;;;;;34.03;5.88;;;;;;;;;;5060131;28;20048;-83
2024/01/23 12:17:13;;;;;;;31.08;5.57;;;;;;;;;;5073678;28;20045;-83
2024/01/23 12:19:46;;;;;;;29.75;5.57;;;;;;;;;;5080250;28;20410;-83
2024/01/23 12:22:13;;;;;;;35.55;6.22;;;;;;;;;;5080947;28;20044;-84
2024/01/23 12:24:39;;;;;;;30.55;5.55;;;;;;;;;;5080820;28;20048;-83
2024/01/23 12:27:05;;;;;;;35.25;6.18;;;;;;;;;;5061298;28;20052;-83
2024/01/23 12:29:31;;;;;;;33.13;6.03;;;;;;;;;;5060215;28;20056;-83
2024/01/23 12:31:57;;;;;;;31.85;5.50;;;;;;;;;;5060266;28;20055;-83
2024/01/23 12:34:23;;;;;;;36.00;5.18;;;;;;;;;;5060510;28;20048;-83
2024/01/23 12:36:50;;;;;;;29.17;4.80;;;;;;;;;;5060363;28;20059;-83
2024/01/23 12:39:17;;;;;;;27.38;4.95;;;;;;;;;;5060514;28;20045;-83
2024/01/23 12:41:43;;;;;;;32.03;4.72;;;;;;;;;;5052824;28;20479;-83
2024/01/23 12:44:09;;;;;;;33.67;5.25;;;;;;;;;;5040723;28;20093;-83
2024/01/23 12:46:35;;;;;;;28.08;5.50;;;;;;;;;;5058652;28;20049;-83
2024/01/23 12:49:05;;;;;;;32.13;5.70;;;;;;;;;;5060980;28;20045;-83
2024/01/23 12:51:31;;;;;;;33.78;5.57;;;;;;;;;;5059579;28;20041;-83
2024/01/23 12:54:00;;;;;;;35.65;6.53;;;;;;;;;;5060447;28;20041;-83
2024/01/23 12:56:26;;;;;;;32.60;5.30;;;;;;;;;;5060485;28;20053;-82
2024/01/23 12:58:52;;;;;;;26.08;4.80;;;;;;;;;;5057117;28;20061;-83
2024/01/23 13:01:18;;;;;;;35.13;6.13;;;;;;;;;;5058365;28;20044;-81
2024/01/23 13:03:47;;;;;;;29.98;5.05;;;;;;;;;;5042034;28;20088;-79
2024/01/23 13:06:14;;;;;;;26.15;5.15;;;;;;;;;;5059594;28;20041;-79
2024/01/23 13:08:41;;;;;;;32.25;5.47;;;;;;;;;;5063486;28;20049;-79
2024/01/23 13:11:07;;;;;;;29.40;6.00;;;;;;;;;;5057900;28;20049;-83
2024/01/23 13:13:33;;;;;;;28.73;5.43;;;;;;;;;;5054688;28;20071;-83
2024/01/23 13:16:00;;;;;;;37.72;6.00;;;;;;;;;;5069019;28;20049;-83
2024/01/23 13:18:26;;;;;;;27.65;5.30;;;;;;;;;;5055330;28;20049;-83
2024/01/23 13:20:52;;;;;;;35.10;5.50;;;;;;;;;;5055326;28;20226;-83
2024/01/23 13:23:18;;;;;;;27.77;6.20;;;;;;;;;;5054086;28;20094;-83
2024/01/23 13:25:44;;;;;;;36.42;6.90;;;;;;;;;;5054190;28;20048;-83
2024/01/23 13:28:10;;;;;;;27.52;5.68;;;;;;;;;;5055403;28;20336;-83
2024/01/23 13:30:37;;;;;;;26.45;5.75;;;;;;;;;;5056303;28;20048;-83
2024/01/23 13:33:03;;;;;;;31.23;5.80;;;;;;;;;;5055173;28;20045;-83
2024/01/23 13:35:29;;;;;;;30.98;6.18;;;;;;;;;;5056240;28;20045;-82
2024/01/23 13:37:55;;;;;;;22.58;5.47;;;;;;;;;;5053432;28;20175;-81
2024/01/23 13:40:22;;;;;;;27.48;4.63;;;;;;;;;;5043619;28;20195;-81
2024/01/23 13:42:49;;;;;;;28.52;5.03;;;;;;;;;;5048203;28;20076;-81
2024/01/23 13:45:15;;;;;;;28.17;4.95;;;;;;;;;;5039472;28;20068;-81
2024/01/23 13:47:43;;;;;;;33.33;5.78;;;;;;;;;;5046452;28;20498;-80
2024/01/23 13:50:09;;;;;;;30.52;4.97;;;;;;;;;;5057990;28;20053;-80
2024/01/23 13:52:35;;;;;;;29.40;5.20;;;;;;;;;;5058661;28;20070;-80
2024/01/23 13:55:05;;;;;;;27.15;5.50;;;;;;;;;;5058922;28;20053;-80
2024/01/23 13:57:32;;;;;;;26.95;5.70;;;;;;;;;;5057270;28;20080;-80
2024/01/23 13:59:58;;;;;;;27.67;4.57;;;;;;;;;;5049831;28;20037;-80
2024/01/23 14:02:24;;;;;;;28.65;5.32;;;;;;;;;;5053659;28;20410;-80
2024/01/23 14:04:51;;;;;;;28.13;4.88;;;;;;;;;;5048505;28;20045;-80
2024/01/23 14:07:17;;;;;;;25.10;4.45;;;;;;;;;;5056801;28;20385;-80
2024/01/23 14:09:43;;;;;;;29.00;4.88;;;;;;;;;;5057958;28;20125;-80
2024/01/23 14:12:11;;;;;;;23.35;4.78;;;;;;;;;;5058360;28;20061;-80
2024/01/23 14:14:37;;;;;;;29.63;5.30;;;;;;;;;;5059212;28;20063;-80
2024/01/23 14:17:04;;;;;;;30.60;5.20;;;;;;;;;;5075501;28;20049;-80
2024/01/23 14:19:30;;;;;;;28.65;5.07;;;;;;;;;;5057699;28;20052;-80
2024/01/23 14:21:56;;;;;;;25.48;4.93;;;;;;;;;;5050059;28;20060;-80
2024/01/23 14:24:22;;;;;;;29.23;4.75;;;;;;;;;;5058012;28;20087;-80
2024/01/23 14:26:48;;;;;;;31.15;5.57;;;;;;;;;;5050224;28;20037;-79
2024/01/23 14:29:14;;;;;;;25.60;5.35;;;;;;;;;;5040170;28;20045;-79